EICN weather

Coonagh Aerodrome
Limerick, County Limerick, Ireland

Public forecast

Using degrees Celsius for public forecast. Weather courtesy of forecast.io.

METAR (pilot weather report)

Closest report is Shannon Airport, 9.1 nm (16.8 km) WNW. Retrieved 2019/06/17 18:30 UTC (0 seconds ago):

EINN 171830Z 25011KT 9999 FEW022 16/08 Q1012 NOSIG

TAF (pilot weather forecast)

Closest forecast is Shannon Airport, 9.1 nm (16.8 km) WNW. Retrieved 2019/06/17 18:11 UTC (8 minutes ago):

TAF EINN 171700Z 1718/1818 25012KT 9999 FEW020 BECMG 1722/1724 19005KT PROB30 TEMPO 1800/1805 4000 BR BECMG 1811/1813 28010KT